Terminal Aerodrome Forecast
Issued by NWS

Home | Current Version | Previous Version | Text Only | Print | Product List | Glossary On
Versions: 1 2 3 4 5 6 7 8 9 10 11 12 13 14 15 16
000
FTUS43 KGRB 281158
TAFMTW
TAF
KMTW 281158Z 2812/2912 20005KT P6SM BKN150
     FM281500 20003KT P6SM SCT050 BKN100
     FM281800 21007KT P6SM SCT035 OVC080 PROB30 2821/2902 -RA OVC035
     FM290200 19007KT 6SM RA BKN022 OVC035
     FM290600 VRB03KT 2SM RA BR BKN012 OVC020=

USA.gov is the U.S. government's official web portal to all federal, state and local government web resources and services.